Moose River, Maine
Current Conditions -  °F | °C
As of 7:00 AM on Saturday 01 Nov 2014 (Local Time) from CYSC Reporting Station
Overcast Overcast  
Wind Chill: 30°   Ceiling: 5000
Heat Index: 34°   Visibility: 9mi
Dew Point: 32°   Wind: 5mph
Humidity: 93%   Direction: 70°ENE
Pressure: 30.04"   Gusts: NA
Location:  45.7142°N, 70.304°W
Report Text: CYSC 011100Z AUTO 07004KT 9SM OVC050 01/M00 A3004 RMK SLP181
Loading
Personal Weather Stations






























Interactive Weather Map
Tropical Storm Tracking
New forecast layout! Learn more

10-Day Weather Forecast

Advertisements
Track Severe Weather on mobile